Hoppa till innehåll

METAR väder och rapporter - ESGG

Nedan listas information från vald flygplats. Andra METARs finns längre ned på sidan. Kontakta oss om någon saknas eller skriv in egen ICAO-kod.

Coded METAR: 2022/12/01 14:20 ESGG 011420Z 05005KT 9999 BKN009 02/00 Q1032

Weather Report @ ESGG

Issued: 1st Dec 2022 at 15:20 CET

Wind: light breeze from the Northeast (050 degrees) at 5 knots (6 mph, 9 kph, 3 mps, Force 2)
Visibility: 10km or more
Cloud: broken at 900 feet
Temperature: 36F / 2C
Dewpoint: 32F / 0C
Humidity: 87%
Pressure: 1032 hPa

Coded TAF: 2022/12/01 15:24 TAF TAF ESGG 011430Z 0115/0215 05006KT 9999 FEW008 BKN015 PROB40 0115/0116 BKN008 PROB40 0116/0207 3000 BR BKN004 PROB40 0207/0215 4000 BR BKN008

Weather Forecast @ ESGG

Issued: 1st Dec 2022 at 16:24 CET

Valid : 1st Dec 16:00 until 2nd Dec 16:00 CET

16:00 CET
Wind: light breeze from the Northeast (050 degrees) at 6 knots (7 mph, 11 kph, 3 mps, Force 2)
Visibility: 10km or more
Cloud: a few clouds at 800 feet
Cloud: broken at 1500 feet

16:00 CET to 17:00 CET
there is a 40% chance of:

Cloud: broken at 800 feet

17:00 CET to 08:00 CET
there is a 40% chance of:

Visibility: 3000 metres
Weather: mist
Cloud: broken at 400 feet

08:00 CET to 16:00 CET
there is a 40% chance of:

Visibility: 4000 metres
Weather: mist
Cloud: broken at 800 feet

Internet delivery of weather data is not secure or reliable enough for operational purposes.

NEVER RELY ON THE OUTPUT OF THIS SCRIPT TO MAKE DECISIONS ABOUT ANYTHING IN WHICH THE WEATHER FORECAST AND ITS INTERPRETATION COULD BE AN ISSUE OF SAFETY.

Andra intressanta METARs

Klicka på önskad rubrik nedan för att visa nuvarande väder för den platsen.

Avstånd från stationen: NO 27kmESGG - Göteborg (Landvetter)
Uppdaterad: 2022-12-01 15:20
 Vind från NO
Vind: NO 9 km/h
Temperatur: 2°C
Vindavkylning: -1°C
Daggpunkt: 0°C
Luftfuktighet: 87%
Barometer: 1032 hPa
Moln: Övervägande molnigt
Sikt: 10 km
Molninformation: Övervägande molnigt 274 m
2022/12/01 14:20 ESGG 011420Z 05005KT 9999 BKN009 02/00 Q1032
Övervägande molnigt
Övervägande molnigt
  Visa detaljer för Göteborg (Landvetter)
Avstånd från stationen: N 28kmESGP - Göteborg (Säve)
Uppdaterad: 2022-12-01 15:20
 Vind från NNO
Vind: NNO 9 km/h
Temperatur: 3°C
Vindavkylning: 0°C
Daggpunkt: 1°C
Luftfuktighet: 87%
Barometer: 1033 hPa
Moln: Övervägande molnigt
Sikt: 10 km
Molninformation: Övervägande molnigt 305 m
Övervägande molnigt 427 m
2022/12/01 14:20 ESGP 011420Z 03005KT 9999 BKN010 BKN014 03/01 Q1033
Övervägande molnigt
Övervägande molnigt
  Visa detaljer för Göteborg (Säve)
Avstånd från stationen: NO 419kmESSA - Stockholm (Arlanda)
Uppdaterad: 2022-12-01 15:20
 Vind från ONO
Vind: ONO 11 km/h
Temperatur: 2°C
Vindavkylning: -1°C
Daggpunkt: 1°C
Luftfuktighet: 93%
Barometer: 1035 hPa
Summering: Lätt regn
Moln: Övervägande molnigt
Sikt: 5 km
Molninformation: Delvis molnigt 183 m
Övervägande molnigt 366 m
2022/12/01 14:20 ESSA 011420Z 06006KT 5000 -RA SCT006 BKN012 02/01 Q1035 TEMPO 4000 DZ BKN006
Lätt regn, Övervägande molnigt
Lätt regn
Övervägande molnigt
  Visa detaljer för Stockholm (Arlanda)
Avstånd från stationen: ONO 404kmESSB - Stockholm (Bromma)
Uppdaterad: 2022-12-01 15:20
 Vind från O
Vind: O 11 km/h
Temperatur: 3°C
Vindavkylning: 0°C
Daggpunkt: 2°C
Luftfuktighet: 93%
Barometer: 1035 hPa
Moln: Övervägande molnigt
Sikt: 10 km
Molninformation: Övervägande molnigt 183 m
Övervägande molnigt 396 m
2022/12/01 14:20 ESSB 011420Z 08006KT 9999 BKN006 BKN013 03/02 Q1035
Övervägande molnigt
Övervägande molnigt
  Visa detaljer för Stockholm (Bromma)
Avstånd från stationen: ONO 323kmESKN - Stockholm (Skavsta)
Uppdaterad: 2022-12-01 15:20
 Vind från NNO
Vind: NNO 7 km/h
Temperatur: 2°C
Vindavkylning: 0°C
Daggpunkt: 2°C
Luftfuktighet: 100%
Barometer: 1034 hPa
Summering: Duggregn
Moln: Övervägande molnigt
Sikt: 10 km
Molninformation: Några få moln 457 m
Övervägande molnigt 853 m
2022/12/01 14:20 ESKN 011420Z 03004KT 9999 DZ FEW015 BKN028 02/02 Q1034
Duggregn, Övervägande molnigt
Duggregn
Övervägande molnigt
  Visa detaljer för Stockholm (Skavsta)
Avstånd från stationen: SSO 238kmESMS - Malmö flygplats (Sturup)
Uppdaterad: 2022-12-01 15:20
 Vind från NO
Vind: NO 7 km/h
Temperatur: 3°C
Vindavkylning: 1°C
Daggpunkt: 3°C
Luftfuktighet: 100%
Barometer: 1030 hPa
Summering: Dimmigt
Moln: Övervägande molnigt
Sikt: 5 km
Molninformation: Delvis molnigt 853 m
Övervägande molnigt 1189 m
2022/12/01 14:20 ESMS 011420Z 04004KT 5000 BR SCT028 BKN039 03/03 Q1030
Dimmigt, Övervägande molnigt
Dimmigt
Övervägande molnigt
  Visa detaljer för Malmö flygplats (Sturup)
Avstånd från stationen: O 382kmESSV - Visby flygplats
Uppdaterad: 2022-12-01 15:20
 Vind från O
Vind: O 7 km/h
Temperatur: 3°C
Vindavkylning: 1°C
Daggpunkt: 2°C
Luftfuktighet: 93%
Barometer: 1033 hPa
Summering: Klart
Sikt: mer än 10 km
2022/12/01 14:20 ESSV 011420Z 08004KT CAVOK 03/02 Q1033
Klart
Klart
  Visa detaljer för Visby flygplats
Avstånd från stationen: NNO 92kmESGT - Trollhättan
Uppdaterad: 2022-12-01 15:20
 Vind från NNO
Vind: NNO 9 km/h
Temperatur: 3°C
Vindavkylning: 0°C
Daggpunkt: 1°C
Luftfuktighet: 87%
Barometer: 1034 hPa
Moln: Övervägande molnigt
Sikt: 10 km
Molninformation: Delvis molnigt 914 m
Övervägande molnigt 1311 m
2022/12/01 14:20 ESGT 011420Z 02005KT 350V060 9999 SCT030 BKN043 03/01 Q1034
Övervägande molnigt
Övervägande molnigt
  Visa detaljer för Trollhättan
Avstånd från stationen: ONO 129kmESGJ - Jönköpings flygplats
Uppdaterad: 2022-12-01 15:20
 Vind från ONO
Vind: ONO 6 km/h
Temperatur: 2°C
Daggpunkt: 2°C
Luftfuktighet: 100%
Barometer: 1032 hPa
Moln: Övervägande molnigt
Sikt: 10 km
Molninformation: Övervägande molnigt 152 m
Övervägande molnigt 213 m
2022/12/01 14:20 ESGJ 011420Z 06003KT 9999 BKN005 BKN007 02/02 Q1032
Övervägande molnigt
Övervägande molnigt
  Visa detaljer för Jönköpings flygplats
Avstånd från stationen: NNO 229kmESOK - Karlstad
Uppdaterad: 2022-12-01 15:20
 Vind från NNO
Vind: NNO 11 km/h
Temperatur: 1°C
Vindavkylning: -2°C
Daggpunkt: 0°C
Luftfuktighet: 93%
Barometer: 1035 hPa
Summering: Light snow, Regn
Moln: Övervägande molnigt
Sikt: 10 km
Molninformation: Delvis molnigt 152 m
Övervägande molnigt 366 m
2022/12/01 14:20 ESOK 011420Z 03006KT 9999 -SNRA SCT005 BKN012 01/00 Q1035
Light snow, Regn, Övervägande molnigt
Light snow
Regn
Övervägande molnigt
  Visa detaljer för Karlstad
Avstånd från stationen: N 643kmESNZ - Östersund (Frösön)
Uppdaterad: 2022-12-01 15:20
 Vind från calm
Vind: Vindstilla
Temperatur: -3°C
Daggpunkt: -3°C
Luftfuktighet: 100%
Barometer: 1035 hPa
Moln: Genommulet
Sikt: 10 km
Molninformation: Genommulet 91 m
2022/12/01 14:20 ESNZ 011420Z 00000KT 9999 OVC003 M03/M03 Q1035
Genommulet
Genommulet
  Visa detaljer för Östersund (Frösön)
Avstånd från stationen: SSO 216kmEKCH - Köpenhamn (Kastrup)
Uppdaterad: 2022-12-01 15:20
 Vind från NO
Vind: NO 11 km/h
Temperatur: 4°C
Vindavkylning: 1°C
Daggpunkt: 3°C
Luftfuktighet: 93%
Barometer: 1031 hPa
Moln: Genommulet
Sikt: 10 km
Molninformation: Genommulet 792 m
2022/12/01 14:20 EKCH 011420Z AUTO 05006KT 9999 OVC026/// 04/03 Q1031 NOSIG
Genommulet
Genommulet
  Visa detaljer för Köpenhamn (Kastrup)
Avstånd från stationen: SV 263kmEKBI - Billund Airport
Uppdaterad: 2022-12-01 15:20
 Vind från NO
Vind: NO 13 km/h
Temperatur: 3°C
Vindavkylning: -1°C
Daggpunkt: 3°C
Luftfuktighet: 100%
Barometer: 1031 hPa
Moln: Genommulet
Sikt: 10 km
Molninformation: Genommulet 335 m
2022/12/01 14:20 EKBI 011420Z AUTO 04007KT 9999 OVC011/// 03/03 Q1031
Genommulet
Genommulet
  Visa detaljer för Billund Airport
Avstånd från stationen: N 302kmENGM - Oslo (Gardermoen)
Uppdaterad: 2022-12-01 15:20
 Vind från N
Vind: N 11 km/h
Temperatur: -1°C
Vindavkylning: -5°C
Daggpunkt: -3°C
Luftfuktighet: 86%
Barometer: 1035 hPa
Moln: Övervägande molnigt
Sikt: 10 km
Molninformation: Några få moln 244 m
Övervägande molnigt 732 m
2022/12/01 14:20 ENGM 011420Z 01006KT 9999 FEW008 BKN024 M01/M03 Q1035 TEMPO BKN008
Övervägande molnigt
Övervägande molnigt
  Visa detaljer för Oslo (Gardermoen)
Avstånd från stationen: NO 540kmEFMA - Mariehamn / Åland
Uppdaterad: 2022-12-01 15:20
 Vind från O
Vind: O 9 km/h
Temperatur: 3°C
Vindavkylning: 0°C
Daggpunkt: 0°C
Luftfuktighet: 81%
Barometer: 1036 hPa
Moln: Genommulet
Sikt: 10 km
Molninformation: Genommulet 640 m
2022/12/01 14:20 EFMA 011420Z AUTO 10005KT 9999 OVC021 03/00 Q1036
Genommulet
Genommulet
  Visa detaljer för Mariehamn / Åland
Avstånd från stationen: S 558kmEDDT - Berlin (Tegel), Germany
Uppdaterad: 2020-11-09 07:50
Ej aktuell
 Vind från O
Vind: O 11 km/h
Temperatur: 6°C
Vindavkylning: 4°C
Daggpunkt: 5°C
Luftfuktighet: 93%
Barometer: 1027 hPa
Summering: Dimmigt
Moln: Genommulet
Sikt: 3 km
Molninformation: Genommulet 91 m
2020/11/09 06:50 EDDT 090650Z 09006KT 050V120 3000 BR OVC003 06/05 Q1027
Dimmigt, Genommulet
Dimmigt
Genommulet
  Visa detaljer för Berlin (Tegel), Germany
Avstånd från stationen: SV 737kmEHAM - Amsterdam (Schiphol)
Uppdaterad: 2022-12-01 15:25
 Vind från NO
Vind: NO 15 km/h
Temperatur: 7°C
Vindavkylning: 4°C
Daggpunkt: 3°C
Luftfuktighet: 76%
Barometer: 1027 hPa
Moln: Några få moln
Sikt: 10 km
Molninformation: Några få moln 671 m
2022/12/01 14:25 EHAM 011425Z 04008KT 9999 FEW022 07/03 Q1027 NOSIG
Några få moln
Några få moln
  Visa detaljer för Amsterdam (Schiphol)
Avstånd från stationen: ONO 808kmEFHK - Helsingfors (Vantaa)
Uppdaterad: 2022-12-01 15:20
 Vind från ONO
Vind: ONO 15 km/h
Temperatur: -1°C
Vindavkylning: -6°C
Daggpunkt: -2°C
Luftfuktighet: 93%
Barometer: 1038 hPa
Moln: Övervägande molnigt
Sikt: 10 km
Molninformation: Några få moln 244 m
Övervägande molnigt 366 m
2022/12/01 14:20 EFHK 011420Z 06008KT 9999 FEW008 BKN012 M01/M02 Q1038 NOSIG
Övervägande molnigt
Övervägande molnigt
  Visa detaljer för Helsingfors (Vantaa)
Avstånd från stationen: SSV 537kmEDDW - Bremen
Uppdaterad: 2022-12-01 15:20
 Vind från ONO
Vind: ONO 15 km/h
Temperatur: 4°C
Vindavkylning: 1°C
Daggpunkt: 1°C
Luftfuktighet: 81%
Barometer: 1028 hPa
Moln: Genommulet
Sikt: 8 km
Molninformation: Genommulet 396 m
2022/12/01 14:20 EDDW 011420Z AUTO 07008KT 8000 OVC013 04/01 Q1028 TEMPO OVC008
Genommulet
Genommulet
  Visa detaljer för Bremen
Avstånd från stationen: SSV 861kmEDDF - Frankfurt am Main
Uppdaterad: 2022-12-01 15:20
 Vind från NNO
Vind: NNO 17 km/h
Temperatur: 5°C
Vindavkylning: 2°C
Daggpunkt: 1°C
Luftfuktighet: 76%
Barometer: 1024 hPa
Moln: Några få moln
Sikt: 10 km
Molninformation: Några få moln 518 m
2022/12/01 14:20 EDDF 011420Z AUTO 02009KT 9999 FEW017 05/01 Q1024 NOSIG
Några få moln
Några få moln
  Visa detaljer för Frankfurt am Main
Avstånd från stationen: SV 880kmEBBR - Bryssel international
Uppdaterad: 2022-12-01 15:20
 Vind från N
Vind: N 9 km/h
Temperatur: 6°C
Vindavkylning: 4°C
Daggpunkt: 3°C
Luftfuktighet: 81%
Barometer: 1026 hPa
Moln: Övervägande molnigt
Sikt: 10 km
Molninformation: Övervägande molnigt 549 m
2022/12/01 14:20 EBBR 011420Z 01005KT 9999 BKN018 06/03 Q1026 NOSIG
Övervägande molnigt
Övervägande molnigt
  Visa detaljer för Bryssel international
Avstånd från stationen: SV 738kmEHAM - Amsterdam (Schiphol)
Uppdaterad: 2022-12-01 15:25
 Vind från NO
Vind: NO 15 km/h
Temperatur: 7°C
Vindavkylning: 4°C
Daggpunkt: 3°C
Luftfuktighet: 76%
Barometer: 1027 hPa
Moln: Några få moln
Sikt: 10 km
Molninformation: Några få moln 671 m
2022/12/01 14:25 EHAM 011425Z 04008KT 9999 FEW022 07/03 Q1027 NOSIG
Några få moln
Några få moln
  Visa detaljer för Amsterdam (Schiphol)
Avstånd från stationen: SV 1044kmEGLL - London (Heathrow)
Uppdaterad: 2022-12-01 15:20
 Vind från VNV
Vind: VNV 7 km/h
Temperatur: 6°C
Vindavkylning: 4°C
Daggpunkt: 5°C
Luftfuktighet: 93%
Barometer: 1028 hPa
Summering: Partial Fog
Moln: Övervägande molnigt
Sikt: 3 km
Molninformation: Delvis molnigt 30 m
Övervägande molnigt 305 m
2022/12/01 14:20 EGLL 011420Z 30004KT 3000 0500S R27L/P1500N R27R/1400N PRFG SCT001 BKN010 06/05 Q1028
Partial fog, Övervägande molnigt
Partial fog
Övervägande molnigt
  Visa detaljer för London (Heathrow)
Avstånd från stationen: SV 1132kmLFPG - Paris (Charles de Gaulle)
Uppdaterad: 2022-12-01 15:30
 Vind från N
Vind: N 17 km/h
Temperatur: 5°C
Vindavkylning: 2°C
Daggpunkt: 3°C
Luftfuktighet: 87%
Barometer: 1025 hPa
Moln: Genommulet
Sikt: 10 km
Molninformation: Genommulet 335 m
2022/12/01 14:30 LFPG 011430Z 01009KT 9999 OVC011 05/03 Q1025 NOSIG
Genommulet
Genommulet
  Visa detaljer för Paris (Charles de Gaulle)
Avstånd från stationen: SSV 1142kmLSZH - Zürich Airport
Uppdaterad: 2022-12-01 15:20
 Vind från NNO
Vind: NNO 6 km/h
Temperatur: 4°C
Daggpunkt: 0°C
Luftfuktighet: 75%
Barometer: 1020 hPa
Moln: Genommulet
Sikt: 10 km
Molninformation: Några få moln 457 m
Övervägande molnigt 549 m
Genommulet 1280 m
2022/12/01 14:20 LSZH 011420Z 03003KT 350V110 9999 FEW015 BKN018 OVC042 04/M00 Q1020 NOSIG
Genommulet
Genommulet
  Visa detaljer för Zürich Airport
Avstånd från stationen: S 1749kmLIRF - Rome Airport (Fiumicino - Leonardo da Vinci)
Uppdaterad: 2022-12-01 15:20
 Vind från V
Vind: V 7 km/h
Temperatur: 14°C
Daggpunkt: 6°C
Luftfuktighet: 59%
Barometer: 1013 hPa
Summering: Klart
Sikt: mer än 10 km
2022/12/01 14:20 LIRF 011420Z 26004KT CAVOK 14/06 Q1013 NOSIG
Klart
Klart
  Visa detaljer för Rome Airport (Fiumicino - Leonardo da Vinci)
Avstånd från stationen: SO 2679kmLTAI - Antalya
Uppdaterad: 2022-12-01 15:20
 Vind från O
Vind: O 7 km/h
Temperatur: 17°C
Daggpunkt: 15°C
Luftfuktighet: 88%
Barometer: 1018 hPa
Moln: Övervägande molnigt
Sikt: 10 km
Molninformation: Några få moln 610 m
Övervägande molnigt 914 m
2022/12/01 14:20 LTAI 011420Z 10004KT 060V160 9999 FEW020CB BKN030 17/15 Q1018 NOSIG
Övervägande molnigt
Övervägande molnigt
  Visa detaljer för Antalya
Avstånd från stationen: VSV 6074kmKJFK - New Your (JFK)
Uppdaterad: 2022-12-01 14:51
 Vind från V
Vind: V 35 km/h
Temperatur: 4°C
Vindavkylning: -2°C
Daggpunkt: -7°C
Luftfuktighet: 45%
Barometer: 1023 hPa
Moln: Delvis molnigt
Sikt: 16 km
Molninformation: Några få moln 1128 m
Delvis molnigt 1829 m
2022/12/01 13:51 KJFK 011351Z 27019KT 10SM FEW037 SCT060 04/M07 A3021 RMK AO2 SLP229 T00391072
Delvis molnigt
Delvis molnigt
  Visa detaljer för New Your (JFK)
Avstånd från stationen: VSV 8848kmKLAX - Los Angeles International Airport
Uppdaterad: 2022-12-01 14:53
 Vind från SO
Vind: SO 7 km/h
Temperatur: 13°C
Daggpunkt: 7°C
Luftfuktighet: 67%
Barometer: 1016.6 hPa
Moln: Genommulet
Sikt: 16 km
Molninformation: Några få moln 366 m
Några få moln 762 m
Genommulet 1219 m
2022/12/01 13:53 KLAX 011353Z 13004KT 10SM FEW012 FEW025 OVC040 13/07 A3002 RMK AO2 SLP163 T01330067 $
Genommulet
Genommulet
  Visa detaljer för Los Angeles International Airport
Avstånd från stationen: SO 4968kmOMDB - Dubai International Airport
Uppdaterad: 2022-12-01 15:00
 Vind från V
Vind: V 13 km/h
Temperatur: 28°C
Värmeindex: 29°C
Daggpunkt: 18°C
Luftfuktighet: 55%
Barometer: 1014 hPa
Summering: Klart
Sikt: mer än 10 km
2022/12/01 14:00 OMDB 011400Z 28007KT 260V320 CAVOK 28/18 Q1014 NOSIG
Klart
Klart
  Visa detaljer för Dubai International Airport
Avstånd från stationen: OSO 8570kmRJTT - Tokyo International Airport
Uppdaterad: 2022-12-01 15:30
 Vind från N
Vind: N 15 km/h
Temperatur: 10°C
Vindavkylning: 8°C
Daggpunkt: 7°C
Luftfuktighet: 82%
Barometer: 1017 hPa
Moln: Övervägande molnigt
Sikt: 10 km
Molninformation: Några få moln 457 m
Övervägande molnigt 914 m
2022/12/01 14:30 RJTT 011430Z 01008KT 9999 FEW015 BKN030 10/07 Q1017 NOSIG RMK 1CU015 7SC030 A3003
Övervägande molnigt
Övervägande molnigt
  Visa detaljer för Tokyo International Airport
Avstånd från stationen: OSO 7125kmZBAA - Peking (Beijing Capital)
Uppdaterad: 2022-12-01 15:30
 Vind från S
Vind: S 7 km/h
Temperatur: -5°C
Vindavkylning: -8°C
Daggpunkt: -18°C
Luftfuktighet: 36%
Barometer: 1032 hPa
Summering: Klart
Sikt: mer än 10 km
2022/12/01 14:30 ZBAA 011430Z 17002MPS CAVOK M05/M18 Q1032 NOSIG
Klart
Klart
  Visa detaljer för Peking (Beijing Capital)
VÄDER KURIOSA -  One Inch of RainOne inch of rain over one square mile equals to 17.4 million gallons of water.